sensor_id;sensor_type;location;lat;lon;timestamp;P1;durP1;ratioP1;P2;durP2;ratioP2
36379;SDS011;22411;53.016;18.632;2022-12-07T00:01:39;12.00;;;5.95;;
36379;SDS011;22411;53.016;18.632;2022-12-07T00:04:09;12.23;;;6.80;;
36379;SDS011;22411;53.016;18.632;2022-12-07T00:06:41;9.07;;;6.40;;
36379;SDS011;22411;53.016;18.632;2022-12-07T00:09:13;10.40;;;6.57;;
36379;SDS011;22411;53.016;18.632;2022-12-07T00:11:42;10.90;;;6.40;;
36379;SDS011;22411;53.016;18.632;2022-12-07T00:14:13;10.07;;;6.33;;
36379;SDS011;22411;53.016;18.632;2022-12-07T00:16:40;7.17;;;5.67;;
36379;SDS011;22411;53.016;18.632;2022-12-07T00:19:08;9.57;;;5.83;;
36379;SDS011;22411;53.016;18.632;2022-12-07T00:21:35;7.57;;;5.23;;
36379;SDS011;22411;53.016;18.632;2022-12-07T00:24:02;8.27;;;5.50;;
36379;SDS011;22411;53.016;18.632;2022-12-07T00:26:31;10.10;;;6.60;;
36379;SDS011;22411;53.016;18.632;2022-12-07T00:29:05;11.13;;;7.32;;
36379;SDS011;22411;53.016;18.632;2022-12-07T00:31:34;10.30;;;6.47;;
36379;SDS011;22411;53.016;18.632;2022-12-07T00:34:04;11.32;;;6.53;;
36379;SDS011;22411;53.016;18.632;2022-12-07T00:36:37;10.00;;;6.07;;
36379;SDS011;22411;53.016;18.632;2022-12-07T00:39:03;10.40;;;6.80;;
36379;SDS011;22411;53.016;18.632;2022-12-07T00:41:29;10.47;;;6.93;;
36379;SDS011;22411;53.016;18.632;2022-12-07T00:43:55;11.57;;;7.93;;
36379;SDS011;22411;53.016;18.632;2022-12-07T00:46:22;10.77;;;7.67;;
36379;SDS011;22411;53.016;18.632;2022-12-07T00:48:49;10.50;;;5.67;;
36379;SDS011;22411;53.016;18.632;2022-12-07T00:51:16;10.17;;;6.47;;
36379;SDS011;22411;53.016;18.632;2022-12-07T00:53:44;6.67;;;4.93;;
36379;SDS011;22411;53.016;18.632;2022-12-07T00:56:14;7.27;;;4.87;;
36379;SDS011;22411;53.016;18.632;2022-12-07T00:58:42;8.57;;;5.07;;
36379;SDS011;22411;53.016;18.632;2022-12-07T01:01:09;7.93;;;5.13;;
36379;SDS011;22411;53.016;18.632;2022-12-07T01:03:36;9.53;;;5.90;;
36379;SDS011;22411;53.016;18.632;2022-12-07T01:06:03;9.07;;;5.33;;
36379;SDS011;22411;53.016;18.632;2022-12-07T01:08:30;9.20;;;6.37;;
36379;SDS011;22411;53.016;18.632;2022-12-07T01:11:04;9.53;;;5.80;;
36379;SDS011;22411;53.016;18.632;2022-12-07T01:13:32;9.27;;;5.90;;
36379;SDS011;22411;53.016;18.632;2022-12-07T01:16:00;9.33;;;6.73;;
36379;SDS011;22411;53.016;18.632;2022-12-07T01:18:29;12.53;;;7.00;;
36379;SDS011;22411;53.016;18.632;2022-12-07T01:21:00;12.10;;;8.10;;
36379;SDS011;22411;53.016;18.632;2022-12-07T01:23:27;11.13;;;7.32;;
36379;SDS011;22411;53.016;18.632;2022-12-07T01:25:55;11.53;;;6.93;;
36379;SDS011;22411;53.016;18.632;2022-12-07T01:28:22;10.13;;;7.70;;
36379;SDS011;22411;53.016;18.632;2022-12-07T01:30:55;14.43;;;8.40;;
36379;SDS011;22411;53.016;18.632;2022-12-07T01:33:33;13.67;;;7.87;;
36379;SDS011;22411;53.016;18.632;2022-12-07T01:36:22;13.57;;;8.53;;
36379;SDS011;22411;53.016;18.632;2022-12-07T01:38:51;11.67;;;7.30;;
36379;SDS011;22411;53.016;18.632;2022-12-07T01:41:22;12.50;;;7.30;;
36379;SDS011;22411;53.016;18.632;2022-12-07T01:46:38;14.07;;;8.83;;
36379;SDS011;22411;53.016;18.632;2022-12-07T01:49:05;15.27;;;9.00;;
36379;SDS011;22411;53.016;18.632;2022-12-07T01:51:34;15.13;;;8.50;;
36379;SDS011;22411;53.016;18.632;2022-12-07T01:54:03;17.27;;;9.03;;
36379;SDS011;22411;53.016;18.632;2022-12-07T01:56:29;16.93;;;10.40;;
36379;SDS011;22411;53.016;18.632;2022-12-07T01:58:57;17.37;;;10.60;;
36379;SDS011;22411;53.016;18.632;2022-12-07T02:01:25;23.07;;;11.87;;
36379;SDS011;22411;53.016;18.632;2022-12-07T02:03:51;18.57;;;11.07;;
36379;SDS011;22411;53.016;18.632;2022-12-07T02:06:19;16.17;;;10.30;;
36379;SDS011;22411;53.016;18.632;2022-12-07T02:08:49;16.27;;;9.98;;
36379;SDS011;22411;53.016;18.632;2022-12-07T02:11:16;19.73;;;10.97;;
36379;SDS011;22411;53.016;18.632;2022-12-07T02:13:42;17.83;;;10.63;;
36379;SDS011;22411;53.016;18.632;2022-12-07T02:27:46;16.77;;;10.07;;
36379;SDS011;22411;53.016;18.632;2022-12-07T02:30:17;17.15;;;10.57;;
36379;SDS011;22411;53.016;18.632;2022-12-07T02:36:27;20.52;;;10.75;;
36379;SDS011;22411;53.016;18.632;2022-12-07T02:41:02;19.53;;;10.50;;
36379;SDS011;22411;53.016;18.632;2022-12-07T02:43:34;17.83;;;9.90;;
36379;SDS011;22411;53.016;18.632;2022-12-07T02:48:35;12.67;;;7.63;;
36379;SDS011;22411;53.016;18.632;2022-12-07T02:51:04;13.13;;;7.10;;
36379;SDS011;22411;53.016;18.632;2022-12-07T02:53:35;11.53;;;7.30;;
36379;SDS011;22411;53.016;18.632;2022-12-07T02:56:30;12.67;;;7.57;;
36379;SDS011;22411;53.016;18.632;2022-12-07T03:04:42;12.23;;;7.23;;
36379;SDS011;22411;53.016;18.632;2022-12-07T03:07:51;14.83;;;7.60;;
36379;SDS011;22411;53.016;18.632;2022-12-07T03:21:31;12.77;;;6.57;;
36379;SDS011;22411;53.016;18.632;2022-12-07T03:24:05;11.53;;;7.07;;
36379;SDS011;22411;53.016;18.632;2022-12-07T03:26:36;9.63;;;6.00;;
36379;SDS011;22411;53.016;18.632;2022-12-07T03:32:23;11.60;;;6.93;;
36379;SDS011;22411;53.016;18.632;2022-12-07T03:34:56;11.17;;;7.33;;
36379;SDS011;22411;53.016;18.632;2022-12-07T03:38:08;9.93;;;5.73;;
36379;SDS011;22411;53.016;18.632;2022-12-07T03:42:45;11.33;;;5.90;;
36379;SDS011;22411;53.016;18.632;2022-12-07T03:45:12;11.87;;;6.83;;
36379;SDS011;22411;53.016;18.632;2022-12-07T03:50:30;9.03;;;6.03;;
36379;SDS011;22411;53.016;18.632;2022-12-07T03:55:59;8.77;;;5.87;;
36379;SDS011;22411;53.016;18.632;2022-12-07T03:58:27;10.50;;;6.17;;
36379;SDS011;22411;53.016;18.632;2022-12-07T04:00:55;10.90;;;6.20;;
36379;SDS011;22411;53.016;18.632;2022-12-07T04:03:21;12.00;;;6.13;;
36379;SDS011;22411;53.016;18.632;2022-12-07T04:05:47;12.10;;;6.90;;
36379;SDS011;22411;53.016;18.632;2022-12-07T04:08:14;14.60;;;7.73;;
36379;SDS011;22411;53.016;18.632;2022-12-07T04:10:39;12.87;;;7.20;;
36379;SDS011;22411;53.016;18.632;2022-12-07T04:13:06;12.37;;;7.10;;
36379;SDS011;22411;53.016;18.632;2022-12-07T04:15:31;14.80;;;7.30;;
36379;SDS011;22411;53.016;18.632;2022-12-07T04:17:58;19.57;;;9.27;;
36379;SDS011;22411;53.016;18.632;2022-12-07T04:20:23;16.73;;;8.97;;
36379;SDS011;22411;53.016;18.632;2022-12-07T04:22:50;17.97;;;9.30;;
36379;SDS011;22411;53.016;18.632;2022-12-07T04:25:15;20.53;;;11.53;;
36379;SDS011;22411;53.016;18.632;2022-12-07T04:27:42;18.40;;;10.13;;
36379;SDS011;22411;53.016;18.632;2022-12-07T04:30:07;17.47;;;8.90;;
36379;SDS011;22411;53.016;18.632;2022-12-07T04:32:34;15.63;;;9.07;;
36379;SDS011;22411;53.016;18.632;2022-12-07T04:35:00;18.07;;;9.83;;
36379;SDS011;22411;53.016;18.632;2022-12-07T04:37:26;18.20;;;9.60;;
36379;SDS011;22411;53.016;18.632;2022-12-07T04:39:52;15.70;;;8.67;;
36379;SDS011;22411;53.016;18.632;2022-12-07T04:42:18;12.93;;;8.30;;
36379;SDS011;22411;53.016;18.632;2022-12-07T04:44:44;13.00;;;8.07;;
36379;SDS011;22411;53.016;18.632;2022-12-07T04:47:10;16.07;;;8.03;;
36379;SDS011;22411;53.016;18.632;2022-12-07T04:49:36;15.70;;;8.80;;
36379;SDS011;22411;53.016;18.632;2022-12-07T04:52:02;12.30;;;8.27;;
36379;SDS011;22411;53.016;18.632;2022-12-07T04:54:27;16.70;;;8.17;;
36379;SDS011;22411;53.016;18.632;2022-12-07T04:56:53;14.13;;;7.33;;
36379;SDS011;22411;53.016;18.632;2022-12-07T04:59:19;13.83;;;9.07;;
36379;SDS011;22411;53.016;18.632;2022-12-07T05:01:45;14.93;;;9.13;;
36379;SDS011;22411;53.016;18.632;2022-12-07T05:04:11;11.53;;;7.50;;
36379;SDS011;22411;53.016;18.632;2022-12-07T05:06:39;12.40;;;7.93;;
36379;SDS011;22411;53.016;18.632;2022-12-07T05:09:04;12.43;;;7.67;;
36379;SDS011;22411;53.016;18.632;2022-12-07T05:11:31;11.90;;;7.07;;
36379;SDS011;22411;53.016;18.632;2022-12-07T05:14:07;14.07;;;7.90;;
36379;SDS011;22411;53.016;18.632;2022-12-07T05:16:41;12.30;;;7.23;;
36379;SDS011;22411;53.016;18.632;2022-12-07T05:19:09;11.00;;;6.60;;
36379;SDS011;22411;53.016;18.632;2022-12-07T05:21:36;13.40;;;7.33;;
36379;SDS011;22411;53.016;18.632;2022-12-07T05:24:03;8.77;;;5.80;;
36379;SDS011;22411;53.016;18.632;2022-12-07T05:26:30;10.67;;;6.37;;
36379;SDS011;22411;53.016;18.632;2022-12-07T05:28:57;11.17;;;6.53;;
36379;SDS011;22411;53.016;18.632;2022-12-07T05:31:24;9.13;;;5.93;;
36379;SDS011;22411;53.016;18.632;2022-12-07T05:33:50;10.63;;;6.30;;
36379;SDS011;22411;53.016;18.632;2022-12-07T05:36:17;10.03;;;5.80;;
36379;SDS011;22411;53.016;18.632;2022-12-07T05:38:43;12.63;;;7.37;;
36379;SDS011;22411;53.016;18.632;2022-12-07T05:41:11;13.00;;;7.93;;
36379;SDS011;22411;53.016;18.632;2022-12-07T05:44:00;10.83;;;5.20;;
36379;SDS011;22411;53.016;18.632;2022-12-07T05:46:28;9.73;;;5.87;;
36379;SDS011;22411;53.016;18.632;2022-12-07T05:48:54;6.07;;;4.90;;
36379;SDS011;22411;53.016;18.632;2022-12-07T05:51:20;9.87;;;5.10;;
36379;SDS011;22411;53.016;18.632;2022-12-07T05:53:46;9.20;;;5.13;;
36379;SDS011;22411;53.016;18.632;2022-12-07T05:56:12;8.90;;;5.27;;
36379;SDS011;22411;53.016;18.632;2022-12-07T05:58:38;7.50;;;5.13;;
36379;SDS011;22411;53.016;18.632;2022-12-07T06:01:23;9.63;;;5.40;;
36379;SDS011;22411;53.016;18.632;2022-12-07T06:03:48;9.17;;;5.30;;
36379;SDS011;22411;53.016;18.632;2022-12-07T06:06:14;6.17;;;4.10;;
36379;SDS011;22411;53.016;18.632;2022-12-07T06:08:40;7.03;;;3.40;;
36379;SDS011;22411;53.016;18.632;2022-12-07T06:11:06;6.97;;;4.17;;
36379;SDS011;22411;53.016;18.632;2022-12-07T06:13:51;6.20;;;3.77;;
36379;SDS011;22411;53.016;18.632;2022-12-07T06:16:17;9.83;;;4.60;;
36379;SDS011;22411;53.016;18.632;2022-12-07T06:18:43;5.57;;;3.63;;
36379;SDS011;22411;53.016;18.632;2022-12-07T06:21:09;7.07;;;4.67;;
36379;SDS011;22411;53.016;18.632;2022-12-07T06:23:35;6.43;;;3.50;;
36379;SDS011;22411;53.016;18.632;2022-12-07T06:26:01;5.50;;;3.93;;
36379;SDS011;22411;53.016;18.632;2022-12-07T06:28:27;6.50;;;4.40;;
36379;SDS011;22411;53.016;18.632;2022-12-07T06:30:57;5.27;;;3.90;;
36379;SDS011;22411;53.016;18.632;2022-12-07T06:33:28;6.80;;;4.40;;
36379;SDS011;22411;53.016;18.632;2022-12-07T06:35:55;7.27;;;4.47;;
36379;SDS011;22411;53.016;18.632;2022-12-07T06:38:21;6.60;;;4.07;;
36379;SDS011;22411;53.016;18.632;2022-12-07T06:40:47;9.17;;;6.27;;
36379;SDS011;22411;53.016;18.632;2022-12-07T06:43:13;9.23;;;5.20;;
36379;SDS011;22411;53.016;18.632;2022-12-07T06:45:40;9.47;;;5.43;;
36379;SDS011;22411;53.016;18.632;2022-12-07T06:48:06;12.33;;;6.23;;
36379;SDS011;22411;53.016;18.632;2022-12-07T06:50:33;12.33;;;7.27;;
36379;SDS011;22411;53.016;18.632;2022-12-07T06:52:59;9.90;;;5.80;;
36379;SDS011;22411;53.016;18.632;2022-12-07T06:55:25;17.27;;;6.27;;
36379;SDS011;22411;53.016;18.632;2022-12-07T06:57:51;12.17;;;5.37;;
36379;SDS011;22411;53.016;18.632;2022-12-07T07:00:17;10.30;;;6.50;;
36379;SDS011;22411;53.016;18.632;2022-12-07T07:02:43;13.43;;;5.90;;
36379;SDS011;22411;53.016;18.632;2022-12-07T07:05:09;14.00;;;6.43;;
36379;SDS011;22411;53.016;18.632;2022-12-07T07:07:35;13.50;;;7.27;;
36379;SDS011;22411;53.016;18.632;2022-12-07T07:10:01;10.43;;;6.53;;
36379;SDS011;22411;53.016;18.632;2022-12-07T07:12:28;12.43;;;6.00;;
36379;SDS011;22411;53.016;18.632;2022-12-07T07:14:54;20.80;;;8.23;;
36379;SDS011;22411;53.016;18.632;2022-12-07T07:17:20;14.97;;;7.30;;
36379;SDS011;22411;53.016;18.632;2022-12-07T07:19:46;19.00;;;8.07;;
36379;SDS011;22411;53.016;18.632;2022-12-07T07:22:12;13.07;;;6.87;;
36379;SDS011;22411;53.016;18.632;2022-12-07T07:24:38;14.90;;;6.43;;
36379;SDS011;22411;53.016;18.632;2022-12-07T07:27:03;17.67;;;6.90;;
36379;SDS011;22411;53.016;18.632;2022-12-07T07:29:30;15.63;;;7.60;;
36379;SDS011;22411;53.016;18.632;2022-12-07T07:31:55;14.20;;;5.87;;
36379;SDS011;22411;53.016;18.632;2022-12-07T07:34:22;15.13;;;7.43;;
36379;SDS011;22411;53.016;18.632;2022-12-07T07:36:47;21.47;;;8.70;;
36379;SDS011;22411;53.016;18.632;2022-12-07T07:39:13;19.97;;;8.57;;
36379;SDS011;22411;53.016;18.632;2022-12-07T07:41:39;18.13;;;9.10;;
36379;SDS011;22411;53.016;18.632;2022-12-07T07:44:05;26.03;;;14.10;;
36379;SDS011;22411;53.016;18.632;2022-12-07T07:46:31;48.03;;;27.10;;
36379;SDS011;22411;53.016;18.632;2022-12-07T07:48:58;23.83;;;11.80;;
36379;SDS011;22411;53.016;18.632;2022-12-07T07:51:24;18.57;;;10.37;;
36379;SDS011;22411;53.016;18.632;2022-12-07T07:53:50;29.20;;;15.97;;
36379;SDS011;22411;53.016;18.632;2022-12-07T07:56:16;24.27;;;14.60;;
36379;SDS011;22411;53.016;18.632;2022-12-07T07:58:42;23.53;;;13.27;;
36379;SDS011;22411;53.016;18.632;2022-12-07T08:01:08;26.57;;;17.47;;
36379;SDS011;22411;53.016;18.632;2022-12-07T08:03:35;18.07;;;12.77;;
36379;SDS011;22411;53.016;18.632;2022-12-07T08:06:02;22.77;;;14.23;;
36379;SDS011;22411;53.016;18.632;2022-12-07T08:08:29;23.30;;;13.20;;
36379;SDS011;22411;53.016;18.632;2022-12-07T08:10:54;27.00;;;13.23;;
36379;SDS011;22411;53.016;18.632;2022-12-07T08:13:21;28.57;;;14.10;;
36379;SDS011;22411;53.016;18.632;2022-12-07T08:15:47;31.80;;;17.47;;
36379;SDS011;22411;53.016;18.632;2022-12-07T08:18:14;31.67;;;24.13;;
36379;SDS011;22411;53.016;18.632;2022-12-07T08:20:40;34.87;;;20.40;;
36379;SDS011;22411;53.016;18.632;2022-12-07T08:23:07;43.83;;;21.27;;
36379;SDS011;22411;53.016;18.632;2022-12-07T08:25:37;26.13;;;15.60;;
36379;SDS011;22411;53.016;18.632;2022-12-07T08:28:03;23.57;;;15.97;;
36379;SDS011;22411;53.016;18.632;2022-12-07T08:30:29;27.20;;;16.87;;
36379;SDS011;22411;53.016;18.632;2022-12-07T08:32:56;25.63;;;17.60;;
36379;SDS011;22411;53.016;18.632;2022-12-07T08:35:22;24.87;;;16.13;;
36379;SDS011;22411;53.016;18.632;2022-12-07T08:37:49;25.53;;;13.17;;
36379;SDS011;22411;53.016;18.632;2022-12-07T08:40:15;23.50;;;15.57;;
36379;SDS011;22411;53.016;18.632;2022-12-07T08:42:42;30.23;;;16.50;;
36379;SDS011;22411;53.016;18.632;2022-12-07T08:45:11;27.03;;;16.27;;
36379;SDS011;22411;53.016;18.632;2022-12-07T08:47:40;20.93;;;11.80;;
36379;SDS011;22411;53.016;18.632;2022-12-07T08:50:10;16.03;;;10.30;;
36379;SDS011;22411;53.016;18.632;2022-12-07T08:52:38;16.10;;;9.50;;
36379;SDS011;22411;53.016;18.632;2022-12-07T08:55:07;27.23;;;15.93;;
36379;SDS011;22411;53.016;18.632;2022-12-07T08:57:37;17.03;;;11.20;;
36379;SDS011;22411;53.016;18.632;2022-12-07T09:00:04;15.47;;;9.53;;
36379;SDS011;22411;53.016;18.632;2022-12-07T09:02:31;16.07;;;10.87;;
36379;SDS011;22411;53.016;18.632;2022-12-07T09:04:57;15.13;;;9.60;;
36379;SDS011;22411;53.016;18.632;2022-12-07T09:07:23;17.07;;;11.53;;
36379;SDS011;22411;53.016;18.632;2022-12-07T09:09:50;24.03;;;17.43;;
36379;SDS011;22411;53.016;18.632;2022-12-07T09:12:16;14.23;;;10.07;;
36379;SDS011;22411;53.016;18.632;2022-12-07T09:14:42;14.60;;;9.83;;
36379;SDS011;22411;53.016;18.632;2022-12-07T09:17:09;16.53;;;9.33;;
36379;SDS011;22411;53.016;18.632;2022-12-07T09:19:37;22.93;;;11.83;;
36379;SDS011;22411;53.016;18.632;2022-12-07T09:22:05;19.13;;;11.13;;
36379;SDS011;22411;53.016;18.632;2022-12-07T09:24:31;17.53;;;10.93;;
36379;SDS011;22411;53.016;18.632;2022-12-07T09:26:58;17.37;;;10.97;;
36379;SDS011;22411;53.016;18.632;2022-12-07T09:29:24;20.97;;;12.67;;
36379;SDS011;22411;53.016;18.632;2022-12-07T09:31:53;20.10;;;11.90;;
36379;SDS011;22411;53.016;18.632;2022-12-07T09:34:19;16.27;;;10.37;;
36379;SDS011;22411;53.016;18.632;2022-12-07T09:36:45;16.47;;;9.87;;
36379;SDS011;22411;53.016;18.632;2022-12-07T09:39:11;15.60;;;9.60;;
36379;SDS011;22411;53.016;18.632;2022-12-07T09:41:41;14.70;;;10.30;;
36379;SDS011;22411;53.016;18.632;2022-12-07T09:44:20;15.43;;;9.80;;
36379;SDS011;22411;53.016;18.632;2022-12-07T09:46:49;19.07;;;9.90;;
36379;SDS011;22411;53.016;18.632;2022-12-07T09:49:21;14.40;;;9.10;;
36379;SDS011;22411;53.016;18.632;2022-12-07T09:54:52;16.07;;;11.00;;
36379;SDS011;22411;53.016;18.632;2022-12-07T09:57:20;16.80;;;11.57;;
36379;SDS011;22411;53.016;18.632;2022-12-07T09:59:54;16.23;;;10.57;;
36379;SDS011;22411;53.016;18.632;2022-12-07T10:05:10;21.50;;;13.27;;
36379;SDS011;22411;53.016;18.632;2022-12-07T10:07:39;19.77;;;12.43;;
36379;SDS011;22411;53.016;18.632;2022-12-07T10:10:15;15.23;;;10.57;;
36379;SDS011;22411;53.016;18.632;2022-12-07T10:13:04;16.20;;;11.27;;
36379;SDS011;22411;53.016;18.632;2022-12-07T10:15:51;14.70;;;10.73;;
36379;SDS011;22411;53.016;18.632;2022-12-07T10:21:01;23.50;;;16.77;;
36379;SDS011;22411;53.016;18.632;2022-12-07T10:23:33;18.83;;;13.50;;
36379;SDS011;22411;53.016;18.632;2022-12-07T10:26:20;15.87;;;11.00;;
36379;SDS011;22411;53.016;18.632;2022-12-07T10:29:22;19.83;;;14.20;;
36379;SDS011;22411;53.016;18.632;2022-12-07T10:31:52;19.60;;;12.20;;
36379;SDS011;22411;53.016;18.632;2022-12-07T10:34:24;18.93;;;10.97;;
36379;SDS011;22411;53.016;18.632;2022-12-07T10:37:14;17.03;;;11.47;;
36379;SDS011;22411;53.016;18.632;2022-12-07T10:42:26;22.20;;;12.50;;
36379;SDS011;22411;53.016;18.632;2022-12-07T10:51:12;15.17;;;10.37;;
36379;SDS011;22411;53.016;18.632;2022-12-07T11:03:56;14.27;;;9.80;;
36379;SDS011;22411;53.016;18.632;2022-12-07T11:06:33;14.47;;;9.23;;
36379;SDS011;22411;53.016;18.632;2022-12-07T11:18:15;21.07;;;12.17;;
36379;SDS011;22411;53.016;18.632;2022-12-07T11:37:18;17.57;;;11.63;;
36379;SDS011;22411;53.016;18.632;2022-12-07T11:39:51;16.83;;;10.67;;
36379;SDS011;22411;53.016;18.632;2022-12-07T11:42:27;17.17;;;9.73;;
36379;SDS011;22411;53.016;18.632;2022-12-07T11:45:00;19.27;;;13.00;;
36379;SDS011;22411;53.016;18.632;2022-12-07T11:47:51;20.00;;;11.70;;
36379;SDS011;22411;53.016;18.632;2022-12-07T11:53:03;19.13;;;12.50;;
36379;SDS011;22411;53.016;18.632;2022-12-07T11:55:41;20.33;;;13.10;;
36379;SDS011;22411;53.016;18.632;2022-12-07T12:00:48;16.60;;;11.33;;
36379;SDS011;22411;53.016;18.632;2022-12-07T12:03:20;15.10;;;11.17;;
36379;SDS011;22411;53.016;18.632;2022-12-07T12:05:56;17.07;;;10.63;;
36379;SDS011;22411;53.016;18.632;2022-12-07T12:08:33;17.97;;;12.30;;
36379;SDS011;22411;53.016;18.632;2022-12-07T12:11:12;19.33;;;11.20;;
36379;SDS011;22411;53.016;18.632;2022-12-07T12:22:45;12.17;;;7.33;;
36379;SDS011;22411;53.016;18.632;2022-12-07T12:27:52;12.57;;;8.90;;
36379;SDS011;22411;53.016;18.632;2022-12-07T12:30:34;11.93;;;7.90;;
36379;SDS011;22411;53.016;18.632;2022-12-07T12:33:12;16.63;;;8.77;;
36379;SDS011;22411;53.016;18.632;2022-12-07T12:35:43;12.50;;;8.93;;
36379;SDS011;22411;53.016;18.632;2022-12-07T12:38:29;14.33;;;9.27;;
36379;SDS011;22411;53.016;18.632;2022-12-07T12:40:59;11.93;;;9.10;;
36379;SDS011;22411;53.016;18.632;2022-12-07T12:54:27;16.97;;;11.97;;
36379;SDS011;22411;53.016;18.632;2022-12-07T12:57:09;14.93;;;9.60;;
36379;SDS011;22411;53.016;18.632;2022-12-07T13:15:50;21.63;;;13.90;;
36379;SDS011;22411;53.016;18.632;2022-12-07T13:20:54;18.43;;;12.50;;
36379;SDS011;22411;53.016;18.632;2022-12-07T13:23:32;22.63;;;15.17;;
36379;SDS011;22411;53.016;18.632;2022-12-07T13:28:50;22.93;;;13.83;;
36379;SDS011;22411;53.016;18.632;2022-12-07T13:31:31;23.70;;;13.93;;
36379;SDS011;22411;53.016;18.632;2022-12-07T13:33:58;23.90;;;15.18;;
36379;SDS011;22411;53.016;18.632;2022-12-07T13:36:30;20.83;;;14.27;;
36379;SDS011;22411;53.016;18.632;2022-12-07T13:39:10;23.47;;;13.17;;
36379;SDS011;22411;53.016;18.632;2022-12-07T13:41:52;22.53;;;14.70;;
36379;SDS011;22411;53.016;18.632;2022-12-07T13:44:20;21.47;;;14.70;;
36379;SDS011;22411;53.016;18.632;2022-12-07T13:46:52;20.77;;;13.80;;
36379;SDS011;22411;53.016;18.632;2022-12-07T13:49:30;19.67;;;13.57;;
36379;SDS011;22411;53.016;18.632;2022-12-07T13:54:42;23.33;;;14.37;;
36379;SDS011;22411;53.016;18.632;2022-12-07T13:57:09;20.27;;;14.00;;
36379;SDS011;22411;53.016;18.632;2022-12-07T13:59:35;19.67;;;12.47;;
36379;SDS011;22411;53.016;18.632;2022-12-07T14:02:54;19.97;;;13.97;;
36379;SDS011;22411;53.016;18.632;2022-12-07T14:08:00;21.17;;;12.90;;
36379;SDS011;22411;53.016;18.632;2022-12-07T14:10:30;25.43;;;15.77;;
36379;SDS011;22411;53.016;18.632;2022-12-07T14:13:19;24.33;;;16.03;;
36379;SDS011;22411;53.016;18.632;2022-12-07T14:15:54;23.93;;;14.23;;
36379;SDS011;22411;53.016;18.632;2022-12-07T14:18:25;24.47;;;15.77;;
36379;SDS011;22411;53.016;18.632;2022-12-07T14:21:13;28.83;;;18.20;;
36379;SDS011;22411;53.016;18.632;2022-12-07T14:23:44;26.30;;;17.80;;
36379;SDS011;22411;53.016;18.632;2022-12-07T14:26:15;26.37;;;17.00;;
36379;SDS011;22411;53.016;18.632;2022-12-07T14:28:45;24.87;;;15.27;;
36379;SDS011;22411;53.016;18.632;2022-12-07T14:31:12;29.30;;;17.47;;
36379;SDS011;22411;53.016;18.632;2022-12-07T14:33:40;30.63;;;19.20;;
36379;SDS011;22411;53.016;18.632;2022-12-07T14:36:13;30.00;;;17.90;;
36379;SDS011;22411;53.016;18.632;2022-12-07T14:38:40;29.43;;;18.60;;
36379;SDS011;22411;53.016;18.632;2022-12-07T14:41:16;29.60;;;17.43;;
36379;SDS011;22411;53.016;18.632;2022-12-07T14:44:10;25.53;;;16.97;;
36379;SDS011;22411;53.016;18.632;2022-12-07T14:46:37;25.27;;;18.53;;
36379;SDS011;22411;53.016;18.632;2022-12-07T14:49:03;29.43;;;19.23;;
36379;SDS011;22411;53.016;18.632;2022-12-07T14:51:29;27.47;;;17.40;;
36379;SDS011;22411;53.016;18.632;2022-12-07T14:53:56;26.70;;;16.63;;
36379;SDS011;22411;53.016;18.632;2022-12-07T14:56:22;23.77;;;15.20;;
36379;SDS011;22411;53.016;18.632;2022-12-07T14:58:49;22.43;;;14.77;;
36379;SDS011;22411;53.016;18.632;2022-12-07T15:01:14;23.90;;;14.63;;
36379;SDS011;22411;53.016;18.632;2022-12-07T15:03:41;21.57;;;13.40;;
36379;SDS011;22411;53.016;18.632;2022-12-07T15:06:07;19.67;;;13.37;;
36379;SDS011;22411;53.016;18.632;2022-12-07T15:08:33;23.40;;;14.73;;
36379;SDS011;22411;53.016;18.632;2022-12-07T15:10:59;23.23;;;14.57;;
36379;SDS011;22411;53.016;18.632;2022-12-07T15:13:25;19.63;;;13.07;;
36379;SDS011;22411;53.016;18.632;2022-12-07T15:16:10;22.13;;;12.93;;
36379;SDS011;22411;53.016;18.632;2022-12-07T15:18:38;18.20;;;12.00;;
36379;SDS011;22411;53.016;18.632;2022-12-07T15:21:04;17.53;;;12.07;;
36379;SDS011;22411;53.016;18.632;2022-12-07T15:23:30;14.33;;;9.77;;
36379;SDS011;22411;53.016;18.632;2022-12-07T15:25:57;14.33;;;10.27;;
36379;SDS011;22411;53.016;18.632;2022-12-07T15:28:23;15.07;;;9.70;;
36379;SDS011;22411;53.016;18.632;2022-12-07T15:30:49;17.17;;;10.97;;
36379;SDS011;22411;53.016;18.632;2022-12-07T15:33:15;13.60;;;9.57;;
36379;SDS011;22411;53.016;18.632;2022-12-07T15:35:44;13.57;;;9.60;;
36379;SDS011;22411;53.016;18.632;2022-12-07T15:38:11;15.50;;;10.07;;
36379;SDS011;22411;53.016;18.632;2022-12-07T15:40:37;14.23;;;9.50;;
36379;SDS011;22411;53.016;18.632;2022-12-07T15:43:04;12.90;;;9.43;;
36379;SDS011;22411;53.016;18.632;2022-12-07T15:45:30;14.17;;;9.43;;
36379;SDS011;22411;53.016;18.632;2022-12-07T15:47:56;13.97;;;10.03;;
36379;SDS011;22411;53.016;18.632;2022-12-07T15:50:22;14.37;;;9.37;;
36379;SDS011;22411;53.016;18.632;2022-12-07T15:52:49;16.47;;;11.50;;
36379;SDS011;22411;53.016;18.632;2022-12-07T15:55:14;14.93;;;9.63;;
36379;SDS011;22411;53.016;18.632;2022-12-07T15:57:41;17.63;;;13.67;;
36379;SDS011;22411;53.016;18.632;2022-12-07T16:00:07;18.60;;;15.43;;
36379;SDS011;22411;53.016;18.632;2022-12-07T16:02:36;18.53;;;12.43;;
36379;SDS011;22411;53.016;18.632;2022-12-07T16:05:03;15.83;;;11.03;;
36379;SDS011;22411;53.016;18.632;2022-12-07T16:07:30;16.33;;;12.27;;
36379;SDS011;22411;53.016;18.632;2022-12-07T16:09:56;16.87;;;12.70;;
36379;SDS011;22411;53.016;18.632;2022-12-07T16:12:22;17.23;;;13.63;;
36379;SDS011;22411;53.016;18.632;2022-12-07T16:14:49;18.07;;;13.93;;
36379;SDS011;22411;53.016;18.632;2022-12-07T16:17:15;12.90;;;9.90;;
36379;SDS011;22411;53.016;18.632;2022-12-07T16:19:41;15.37;;;10.57;;
36379;SDS011;22411;53.016;18.632;2022-12-07T16:22:07;13.57;;;10.83;;
36379;SDS011;22411;53.016;18.632;2022-12-07T16:24:33;16.73;;;10.90;;
36379;SDS011;22411;53.016;18.632;2022-12-07T16:26:59;12.27;;;8.50;;
36379;SDS011;22411;53.016;18.632;2022-12-07T16:29:25;11.50;;;8.97;;
36379;SDS011;22411;53.016;18.632;2022-12-07T16:31:51;15.03;;;9.10;;
36379;SDS011;22411;53.016;18.632;2022-12-07T16:34:18;10.80;;;7.90;;
36379;SDS011;22411;53.016;18.632;2022-12-07T16:36:45;11.43;;;8.93;;
36379;SDS011;22411;53.016;18.632;2022-12-07T16:39:11;13.53;;;9.53;;
36379;SDS011;22411;53.016;18.632;2022-12-07T16:41:43;14.83;;;9.60;;
36379;SDS011;22411;53.016;18.632;2022-12-07T16:44:22;13.43;;;9.23;;
36379;SDS011;22411;53.016;18.632;2022-12-07T16:46:54;13.87;;;8.67;;
36379;SDS011;22411;53.016;18.632;2022-12-07T16:49:25;16.60;;;9.23;;
36379;SDS011;22411;53.016;18.632;2022-12-07T16:51:54;15.90;;;9.77;;
36379;SDS011;22411;53.016;18.632;2022-12-07T16:54:29;16.20;;;10.97;;
36379;SDS011;22411;53.016;18.632;2022-12-07T16:57:04;15.80;;;10.90;;
36379;SDS011;22411;53.016;18.632;2022-12-07T16:59:31;16.87;;;10.47;;
36379;SDS011;22411;53.016;18.632;2022-12-07T17:02:13;16.83;;;10.10;;
36379;SDS011;22411;53.016;18.632;2022-12-07T17:04:50;16.25;;;11.15;;
36379;SDS011;22411;53.016;18.632;2022-12-07T17:07:20;15.83;;;11.07;;
36379;SDS011;22411;53.016;18.632;2022-12-07T17:09:56;14.37;;;9.37;;
36379;SDS011;22411;53.016;18.632;2022-12-07T17:12:39;16.77;;;9.57;;